createdAt,value
2022-09-23T00:01:46.618Z,101405.69
2022-09-23T00:04:14.426Z,101413.16
2022-09-23T00:06:44.190Z,101416.19
2022-09-23T00:09:12.499Z,101404.91
2022-09-23T00:11:40.404Z,101419.22
2022-09-23T00:14:08.125Z,101412.38
2022-09-23T00:16:35.851Z,101402.94
2022-09-23T00:19:04.964Z,101407.53
2022-09-23T00:21:32.644Z,101409.59
2022-09-23T00:24:00.477Z,101409.34
2022-09-23T00:26:28.262Z,101409.75
2022-09-23T00:28:56.038Z,101409.25
2022-09-23T00:31:26.213Z,101410.25
2022-09-23T00:33:59.230Z,101408.72
2022-09-23T00:36:28.465Z,101399.41
2022-09-23T00:38:57.027Z,101396.69
2022-09-23T00:41:25.995Z,101402.22
2022-09-23T00:44:01.235Z,101402.50
2022-09-23T00:46:43.656Z,101400.59
2022-09-23T00:49:14.156Z,101394.06
2022-09-23T00:51:48.309Z,101391.28
2022-09-23T00:54:16.677Z,101391.31
2022-09-23T00:56:44.723Z,101381.66
2022-09-23T00:59:14.037Z,101388.78
2022-09-23T01:01:43.026Z,101383.59
2022-09-23T01:04:10.842Z,101392.69
2022-09-23T01:06:38.651Z,101393.00
2022-09-23T01:09:06.701Z,101392.38
2022-09-23T01:11:49.061Z,101388.28
2022-09-23T01:14:41.312Z,101383.03
2022-09-23T01:17:24.301Z,101381.44
2022-09-23T01:20:25.096Z,101382.84
2022-09-23T01:23:07.692Z,101372.06
2022-09-23T01:26:00.268Z,101375.78
2022-09-23T01:28:37.146Z,101378.47
2022-09-23T01:31:13.815Z,101368.56
2022-09-23T01:33:51.314Z,101374.88
2022-09-23T01:36:24.633Z,101361.03
2022-09-23T01:39:03.997Z,101366.03
2022-09-23T01:41:34.560Z,101359.06
2022-09-23T01:44:25.573Z,101360.66
2022-09-23T01:46:59.974Z,101361.59
2022-09-23T01:49:39.642Z,101364.59
2022-09-23T01:52:16.100Z,101362.44
2022-09-23T01:55:19.087Z,101347.56
2022-09-23T01:57:53.451Z,101353.06
2022-09-23T02:00:24.081Z,101351.44
2022-09-23T02:02:59.458Z,101354.72
2022-09-23T02:05:42.995Z,101345.38
2022-09-23T02:08:29.594Z,101344.59
2022-09-23T02:11:09.077Z,101354.19
2022-09-23T02:13:52.489Z,101350.09
2022-09-23T02:16:40.986Z,101358.03
2022-09-23T02:19:21.259Z,101356.66
2022-09-23T02:22:11.947Z,101361.63
2022-09-23T02:24:40.394Z,101353.94
2022-09-23T02:27:18.563Z,101350.59
2022-09-23T02:30:03.913Z,101351.44
2022-09-23T02:32:49.899Z,101348.69
2022-09-23T02:35:41.285Z,101351.44
2022-09-23T02:38:26.047Z,101348.72
2022-09-23T02:41:32.776Z,101347.09
2022-09-23T02:44:10.568Z,101344.91
2022-09-23T02:46:39.195Z,101345.94
2022-09-23T02:49:28.405Z,101347.34
2022-09-23T02:51:57.675Z,101343.19
2022-09-23T02:54:28.467Z,101340.22
2022-09-23T02:56:57.509Z,101341.06
2022-09-23T02:59:25.220Z,101338.84
2022-09-23T03:01:58.707Z,101326.50
2022-09-23T03:04:40.153Z,101336.97
2022-09-23T03:07:17.409Z,101329.28
2022-09-23T03:09:54.627Z,101321.31
2022-09-23T03:12:53.188Z,101334.47
2022-09-23T03:15:31.897Z,101323.75
2022-09-23T03:18:05.576Z,101319.09
2022-09-23T03:20:39.866Z,101324.84
2022-09-23T03:23:09.103Z,101323.50
2022-09-23T03:25:43.078Z,101320.75
2022-09-23T03:28:12.302Z,101309.50
2022-09-23T03:30:40.540Z,101314.19
2022-09-23T03:33:12.653Z,101316.09
2022-09-23T03:36:11.661Z,101321.06
2022-09-23T03:38:45.254Z,101319.16
2022-09-23T03:41:20.089Z,101313.66
2022-09-23T03:43:48.337Z,101304.31
2022-09-23T03:46:17.866Z,101304.84
2022-09-23T03:48:45.808Z,101294.97
2022-09-23T03:51:31.527Z,101296.09
2022-09-23T03:53:59.319Z,101300.47
2022-09-23T03:56:27.053Z,101297.19
2022-09-23T03:58:54.729Z,101298.28
2022-09-23T04:01:22.917Z,101285.63
2022-09-23T04:03:53.025Z,101293.88
2022-09-23T04:06:21.256Z,101288.94
2022-09-23T04:08:49.264Z,101282.34
2022-09-23T04:11:17.051Z,101280.16
2022-09-23T04:13:44.794Z,101280.97
2022-09-23T04:16:12.560Z,101284.56
2022-09-23T04:18:40.392Z,101282.63
2022-09-23T04:21:08.180Z,101281.25
2022-09-23T04:23:35.954Z,101282.09
2022-09-23T04:26:05.857Z,101278.50
2022-09-23T04:28:34.427Z,101284.53
2022-09-23T04:31:07.224Z,101283.44
2022-09-23T04:33:35.950Z,101285.09
2022-09-23T04:36:03.854Z,101278.78
2022-09-23T04:38:31.730Z,101282.09
2022-09-23T04:40:59.509Z,101278.25
2022-09-23T04:43:27.334Z,101276.84
2022-09-23T04:46:03.180Z,101277.91
2022-09-23T04:48:31.893Z,101286.72
2022-09-23T04:51:04.778Z,101280.09
2022-09-23T04:53:33.538Z,101283.66
2022-09-23T04:56:34.706Z,101289.44
2022-09-23T04:59:06.564Z,101285.03
2022-09-23T05:01:39.049Z,101291.34
2022-09-23T05:04:15.063Z,101288.84
2022-09-23T05:06:45.775Z,101287.72
2022-09-23T05:09:19.389Z,101285.53
2022-09-23T05:11:50.706Z,101288.75
2022-09-23T05:14:41.254Z,101290.97
2022-09-23T05:17:15.079Z,101292.88
2022-09-23T05:19:55.140Z,101296.44
2022-09-23T05:22:31.920Z,101294.81
2022-09-23T05:25:08.786Z,101289.84
2022-09-23T05:27:41.581Z,101293.38
2022-09-23T05:30:13.285Z,101297.47
2022-09-23T05:32:46.880Z,101298.09
2022-09-23T05:35:15.025Z,101300.25
2022-09-23T05:37:42.900Z,101290.56
2022-09-23T05:40:10.971Z,101298.75
2022-09-23T05:42:38.891Z,101291.81
2022-09-23T05:45:07.802Z,101295.22
2022-09-23T05:47:35.569Z,101295.97
2022-09-23T05:50:03.411Z,101297.94
2022-09-23T05:52:31.718Z,101301.66
2022-09-23T05:54:59.498Z,101297.25
2022-09-23T05:57:27.530Z,101295.28
2022-09-23T05:59:55.380Z,101285.00
2022-09-23T06:02:23.517Z,101294.22
2022-09-23T06:04:51.541Z,101293.09
2022-09-23T06:07:19.920Z,101295.69
2022-09-23T06:09:47.740Z,101289.38
2022-09-23T06:12:15.534Z,101288.81
2022-09-23T06:14:43.363Z,101283.91
2022-09-23T06:17:11.111Z,101285.84
2022-09-23T06:19:38.921Z,101295.25
2022-09-23T06:22:06.750Z,101292.44
2022-09-23T06:24:34.513Z,101287.81
2022-09-23T06:27:03.078Z,101295.47
2022-09-23T06:29:33.350Z,101286.81
2022-09-23T06:32:01.518Z,101289.28
2022-09-23T06:34:30.393Z,101289.53
2022-09-23T06:37:02.188Z,101296.50
2022-09-23T06:39:33.603Z,101290.81
2022-09-23T06:42:01.552Z,101289.56
2022-09-23T06:44:29.627Z,101287.38
2022-09-23T06:46:57.589Z,101286.94
2022-09-23T06:49:25.413Z,101291.13
2022-09-23T06:51:53.181Z,101286.09
2022-09-23T06:54:21.016Z,101294.28
2022-09-23T06:56:48.850Z,101293.19
2022-09-23T06:59:17.298Z,101297.69
2022-09-23T07:01:47.318Z,101299.72
2022-09-23T07:04:15.239Z,101292.34
2022-09-23T07:06:43.019Z,101291.63
2022-09-23T07:09:11.199Z,101295.63
2022-09-23T07:11:39.648Z,101299.34
2022-09-23T07:14:07.518Z,101299.78
2022-09-23T07:16:35.304Z,101298.03
2022-09-23T07:19:03.068Z,101300.78
2022-09-23T07:21:31.030Z,101305.88
2022-09-23T07:23:58.920Z,101309.34
2022-09-23T07:26:27.014Z,101305.25
2022-09-23T07:28:56.927Z,101311.66
2022-09-23T07:31:37.098Z,101307.25
2022-09-23T07:34:08.492Z,101308.91
2022-09-23T07:36:37.563Z,101314.28
2022-09-23T07:39:05.658Z,101315.94
2022-09-23T07:41:34.908Z,101311.66
2022-09-23T07:44:03.351Z,101316.47
2022-09-23T07:46:34.225Z,101312.88
2022-09-23T07:49:03.368Z,101312.81
2022-09-23T07:51:36.358Z,101317.84
2022-09-23T07:54:11.589Z,101312.25
2022-09-23T07:56:43.206Z,101320.84
2022-09-23T07:59:18.440Z,101322.75
2022-09-23T08:01:48.593Z,101319.50
2022-09-23T08:04:20.483Z,101317.63
2022-09-23T08:06:53.637Z,101317.69
2022-09-23T08:09:24.503Z,101319.25
2022-09-23T08:11:53.201Z,101312.09
2022-09-23T08:14:22.558Z,101316.28
2022-09-23T08:16:52.007Z,101316.53
2022-09-23T08:19:20.017Z,101306.66
2022-09-23T08:21:47.915Z,101309.66
2022-09-23T08:24:18.594Z,101315.69
2022-09-23T08:26:48.033Z,101311.13
2022-09-23T08:29:18.293Z,101319.69
2022-09-23T08:31:46.668Z,101316.66
2022-09-23T08:34:14.450Z,101322.06
2022-09-23T08:36:44.799Z,101320.19
2022-09-23T08:39:20.815Z,101322.53
2022-09-23T08:41:58.436Z,101322.50
2022-09-23T08:44:48.552Z,101314.34
2022-09-23T08:47:29.831Z,101327.53
2022-09-23T08:50:03.167Z,101322.84
2022-09-23T08:52:57.109Z,101319.63
2022-09-23T08:55:43.583Z,101318.56
2022-09-23T08:58:26.352Z,101323.22
2022-09-23T09:01:03.651Z,101317.69
2022-09-23T09:03:40.270Z,101319.00
2022-09-23T09:06:16.095Z,101313.72
2022-09-23T09:08:49.634Z,101305.19
2022-09-23T09:11:19.388Z,101315.13
2022-09-23T09:14:27.621Z,101312.66
2022-09-23T09:17:01.388Z,101311.84
2022-09-23T09:19:32.453Z,101305.34
2022-09-23T09:22:01.473Z,101304.94
2022-09-23T09:24:35.304Z,101303.13
2022-09-23T09:27:11.990Z,101300.84
2022-09-23T09:29:49.930Z,101301.13
2022-09-23T09:32:48.662Z,101300.44
2022-09-23T09:35:37.922Z,101286.88
2022-09-23T09:38:09.120Z,101295.28
2022-09-23T09:40:43.581Z,101288.84
2022-09-23T09:43:23.719Z,101294.34
2022-09-23T09:46:34.271Z,101290.91
2022-09-23T09:49:14.018Z,101295.72
2022-09-23T09:51:42.607Z,101289.72
2022-09-23T09:54:24.799Z,101293.59
2022-09-23T09:56:53.749Z,101298.78
2022-09-23T09:59:30.655Z,101288.53
2022-09-23T10:02:21.656Z,101292.91
2022-09-23T10:05:07.368Z,101292.91
2022-09-23T10:07:35.216Z,101293.84
2022-09-23T10:10:32.782Z,101285.63
2022-09-23T10:13:16.285Z,101283.81
2022-09-23T10:15:45.554Z,101286.94
2022-09-23T10:18:25.185Z,101281.75
2022-09-23T10:20:53.091Z,101285.38
2022-09-23T10:23:27.423Z,101274.78
2022-09-23T10:25:58.798Z,101284.41
2022-09-23T10:28:46.377Z,101276.72
2022-09-23T10:31:29.254Z,101272.78
2022-09-23T10:34:02.437Z,101268.66
2022-09-23T10:36:32.464Z,101275.66
2022-09-23T10:39:22.423Z,101277.34
2022-09-23T10:42:21.175Z,101271.47
2022-09-23T10:45:24.529Z,101268.41
2022-09-23T10:48:19.482Z,101264.38
2022-09-23T10:50:54.171Z,101268.13
2022-09-23T10:53:43.225Z,101267.84
2022-09-23T10:56:23.359Z,101275.34
2022-09-23T10:59:07.806Z,101265.19
2022-09-23T11:02:02.877Z,101260.72
2022-09-23T11:04:49.342Z,101255.03
2022-09-23T11:07:49.508Z,101254.69
2022-09-23T11:10:50.959Z,101256.38
2022-09-23T11:13:38.109Z,101243.34
2022-09-23T11:16:29.383Z,101253.91
2022-09-23T11:19:02.195Z,101236.69
2022-09-23T11:21:34.848Z,101236.50
2022-09-23T11:24:37.285Z,101233.47
2022-09-23T11:27:17.836Z,101219.50
2022-09-23T11:30:10.335Z,101224.09
2022-09-23T11:32:56.910Z,101220.31
2022-09-23T11:35:37.175Z,101216.78
2022-09-23T11:38:18.897Z,101215.94
2022-09-23T11:40:56.439Z,101203.31
2022-09-23T11:43:28.768Z,101210.97
2022-09-23T11:46:15.549Z,101203.41
2022-09-23T11:49:17.274Z,101196.38
2022-09-23T11:52:10.654Z,101201.94
2022-09-23T11:55:23.334Z,101199.66
2022-09-23T11:58:24.083Z,101195.94
2022-09-23T12:01:09.588Z,101195.91
2022-09-23T12:03:45.031Z,101187.50
2022-09-23T12:06:43.266Z,101179.31
2022-09-23T12:09:58.266Z,101181.94
2022-09-23T12:12:47.837Z,101180.69
2022-09-23T12:15:55.019Z,101170.38
2022-09-23T12:18:36.316Z,101179.25
2022-09-23T12:21:56.959Z,101169.91
2022-09-23T12:24:39.670Z,101170.94
2022-09-23T12:27:24.774Z,101167.16
2022-09-23T12:30:02.850Z,101157.94
2022-09-23T12:32:33.118Z,101158.38
2022-09-23T12:35:05.281Z,101163.63
2022-09-23T12:37:38.449Z,101160.06
2022-09-23T12:40:17.271Z,101160.97
2022-09-23T12:42:47.415Z,101161.31
2022-09-23T12:45:36.088Z,101149.06
2022-09-23T12:48:44.335Z,101147.88
2022-09-23T12:51:13.651Z,101153.13
2022-09-23T12:53:49.099Z,101140.00
2022-09-23T12:56:35.736Z,101130.63
2022-09-23T12:59:33.475Z,101133.88
2022-09-23T13:02:38.623Z,101136.03
2022-09-23T13:05:35.734Z,101120.06
2022-09-23T13:08:17.059Z,101120.97
2022-09-23T13:11:08.958Z,101117.13
2022-09-23T13:13:47.699Z,101112.16
2022-09-23T13:16:37.270Z,101107.75
2022-09-23T13:19:26.405Z,101105.88
2022-09-23T13:21:54.285Z,101107.69
2022-09-23T13:24:26.010Z,101097.78
2022-09-23T13:27:01.385Z,101100.06
2022-09-23T13:29:33.678Z,101100.66
2022-09-23T13:32:06.805Z,101101.16
2022-09-23T13:34:39.602Z,101099.94
2022-09-23T13:37:23.198Z,101103.31
2022-09-23T13:39:52.718Z,101092.84
2022-09-23T13:42:33.094Z,101096.59
2022-09-23T13:45:03.808Z,101095.25
2022-09-23T13:47:34.963Z,101083.28
2022-09-23T13:50:03.165Z,101096.81
2022-09-23T13:52:33.698Z,101088.94
2022-09-23T13:55:02.047Z,101082.47
2022-09-23T13:57:34.256Z,101085.81
2022-09-23T14:00:17.462Z,101077.75
2022-09-23T14:02:47.114Z,101078.38
2022-09-23T14:05:24.449Z,101077.56
2022-09-23T14:07:54.064Z,101073.63
2022-09-23T14:10:24.994Z,101074.66
2022-09-23T14:12:54.563Z,101059.41
2022-09-23T14:15:23.242Z,101061.63
2022-09-23T14:18:06.479Z,101060.72
2022-09-23T14:20:46.203Z,101055.94
2022-09-23T14:23:14.874Z,101062.34
2022-09-23T14:25:47.099Z,101044.41
2022-09-23T14:28:20.315Z,101060.91
2022-09-23T14:30:50.173Z,101052.22
2022-09-23T14:33:23.348Z,101051.78
2022-09-23T14:35:54.962Z,101048.50
2022-09-23T14:38:47.586Z,101055.44
2022-09-23T14:41:24.543Z,101053.91
2022-09-23T14:43:55.040Z,101038.06
2022-09-23T14:46:24.415Z,101039.31
2022-09-23T14:48:55.234Z,101038.84
2022-09-23T14:51:50.483Z,101030.75
2022-09-23T14:54:47.136Z,101039.00
2022-09-23T14:57:23.933Z,101036.56
2022-09-23T14:59:56.636Z,101029.94
2022-09-23T15:02:31.483Z,101039.09
2022-09-23T15:05:14.779Z,101030.88
2022-09-23T15:07:47.723Z,101031.75
2022-09-23T15:10:27.910Z,101035.22
2022-09-23T15:13:09.031Z,101037.72
2022-09-23T15:15:37.541Z,101032.16
2022-09-23T15:18:14.398Z,101029.00
2022-09-23T15:20:50.768Z,101024.03
2022-09-23T15:23:50.953Z,101029.44
2022-09-23T15:26:22.699Z,101028.53
2022-09-23T15:28:56.038Z,101027.06
2022-09-23T15:31:27.364Z,101031.72
2022-09-23T15:33:56.161Z,101016.03
2022-09-23T15:36:26.695Z,101021.44
2022-09-23T15:39:02.957Z,101020.34
2022-09-23T15:41:32.515Z,101011.53
2022-09-23T15:44:28.743Z,101009.81
2022-09-23T15:47:00.143Z,101014.97
2022-09-23T15:49:39.329Z,101010.06
2022-09-23T15:52:10.372Z,101001.34
2022-09-23T15:54:39.311Z,101014.75
2022-09-23T15:57:07.070Z,101005.06
2022-09-23T15:59:34.924Z,100993.56
2022-09-23T16:02:07.978Z,100994.50
2022-09-23T16:04:36.260Z,100992.84
2022-09-23T16:07:05.981Z,101002.19
2022-09-23T16:09:33.913Z,101005.41
2022-09-23T16:12:03.376Z,100999.19
2022-09-23T16:14:31.299Z,101003.34
2022-09-23T16:16:59.170Z,101006.78
2022-09-23T16:19:27.078Z,101009.13
2022-09-23T16:21:54.977Z,100999.84
2022-09-23T16:24:27.882Z,100995.31
2022-09-23T16:27:00.111Z,101007.31
2022-09-23T16:29:28.097Z,100998.94
2022-09-23T16:31:56.190Z,101000.91
2022-09-23T16:34:24.100Z,101001.03
2022-09-23T16:36:52.021Z,100987.56
2022-09-23T16:39:20.766Z,100988.88
2022-09-23T16:41:48.709Z,100999.31
2022-09-23T16:44:16.657Z,101000.47
2022-09-23T16:46:49.938Z,100997.81
2022-09-23T16:49:22.351Z,100990.16
2022-09-23T16:51:51.429Z,100986.69
2022-09-23T16:54:24.264Z,100991.22
2022-09-23T16:56:55.634Z,100986.44
2022-09-23T16:59:44.990Z,100989.22
2022-09-23T17:02:31.567Z,100994.56
2022-09-23T17:05:01.620Z,100992.84
2022-09-23T17:07:29.481Z,100997.81
2022-09-23T17:09:58.145Z,100993.91
2022-09-23T17:12:34.239Z,100995.97
2022-09-23T17:15:06.357Z,101004.31
2022-09-23T17:17:37.231Z,101004.78
2022-09-23T17:20:06.813Z,100995.03
2022-09-23T17:22:34.858Z,100997.81
2022-09-23T17:25:04.241Z,101000.22
2022-09-23T17:27:32.221Z,100998.94
2022-09-23T17:30:00.013Z,100993.63
2022-09-23T17:32:27.914Z,101005.25
2022-09-23T17:34:55.828Z,100996.59
2022-09-23T17:37:24.091Z,101000.63
2022-09-23T17:39:51.971Z,100995.31
2022-09-23T17:42:19.822Z,101002.75
2022-09-23T17:44:48.188Z,101000.78
2022-09-23T17:47:16.051Z,101001.25
2022-09-23T17:49:45.197Z,101002.75
2022-09-23T17:52:13.065Z,101006.72
2022-09-23T17:54:42.763Z,101000.06
2022-09-23T17:57:11.714Z,101003.03
2022-09-23T17:59:39.889Z,101003.75
2022-09-23T18:02:07.850Z,101000.63
2022-09-23T18:04:37.059Z,101008.19
2022-09-23T18:07:05.036Z,101018.00
2022-09-23T18:09:32.936Z,101008.75
2022-09-23T18:12:01.208Z,101009.66
2022-09-23T18:14:29.946Z,101016.38
2022-09-23T18:16:58.644Z,101019.44
2022-09-23T18:19:26.611Z,101015.94
2022-09-23T18:21:59.050Z,101019.66
2022-09-23T18:24:32.749Z,101027.78
2022-09-23T18:27:02.664Z,101027.59
2022-09-23T18:29:32.742Z,101027.47
2022-09-23T18:32:01.163Z,101036.41
2022-09-23T18:34:29.930Z,101018.44
2022-09-23T18:36:58.009Z,101030.56
2022-09-23T18:39:26.817Z,101029.75
2022-09-23T18:41:54.946Z,101031.19
2022-09-23T18:44:25.060Z,101040.25
2022-09-23T18:46:54.233Z,101033.25
2022-09-23T18:49:40.992Z,101048.28
2022-09-23T18:52:09.121Z,101042.19
2022-09-23T18:54:37.415Z,101038.75
2022-09-23T18:57:05.353Z,101042.34
2022-09-23T18:59:34.814Z,101037.94
2022-09-23T19:02:02.785Z,101037.94
2022-09-23T19:04:32.084Z,101034.88
2022-09-23T19:07:00.443Z,101041.75
2022-09-23T19:09:28.497Z,101038.59
2022-09-23T19:11:57.857Z,101044.03
2022-09-23T19:14:28.718Z,101041.94
2022-09-23T19:16:57.094Z,101046.13
2022-09-23T19:19:26.156Z,101038.81
2022-09-23T19:21:56.663Z,101039.69
2022-09-23T19:24:25.123Z,101037.47
2022-09-23T19:26:56.997Z,101038.59
2022-09-23T19:29:28.945Z,101044.44
2022-09-23T19:31:59.356Z,101029.25
2022-09-23T19:34:30.918Z,101028.50
2022-09-23T19:36:59.496Z,101028.72
2022-09-23T19:39:31.761Z,101034.91
2022-09-23T19:42:02.031Z,101030.03
2022-09-23T19:44:33.210Z,101016.41
2022-09-23T19:47:03.478Z,101032.03
2022-09-23T19:49:32.155Z,101019.81
2022-09-23T19:52:01.260Z,101019.66
2022-09-23T19:54:35.263Z,101021.78
2022-09-23T19:57:08.242Z,101026.16
2022-09-23T19:59:37.019Z,101027.44
2022-09-23T20:02:06.939Z,101029.78
2022-09-23T20:04:35.780Z,101031.69
2022-09-23T20:07:05.074Z,101028.91
2022-09-23T20:09:34.640Z,101026.63
2022-09-23T20:12:05.121Z,101025.16
2022-09-23T20:14:35.867Z,101026.31
2022-09-23T20:17:05.359Z,101026.47
2022-09-23T20:19:35.743Z,101027.50
2022-09-23T20:22:22.710Z,101033.19
2022-09-23T20:24:57.716Z,101033.22
2022-09-23T20:27:31.700Z,101035.38
2022-09-23T20:30:03.327Z,101038.91
2022-09-23T20:32:32.650Z,101037.47
2022-09-23T20:35:02.979Z,101038.28
2022-09-23T20:37:33.751Z,101043.31
2022-09-23T20:40:02.895Z,101041.06
2022-09-23T20:42:30.744Z,101045.13
2022-09-23T20:45:00.099Z,101050.84
2022-09-23T20:47:32.366Z,101050.53
2022-09-23T20:50:02.490Z,101050.69
2022-09-23T20:52:32.328Z,101047.91
2022-09-23T20:55:01.965Z,101054.09
2022-09-23T20:57:32.637Z,101046.47
2022-09-23T21:00:02.393Z,101053.78
2022-09-23T21:02:32.180Z,101048.88
2022-09-23T21:05:09.384Z,101050.38
2022-09-23T21:07:37.724Z,101051.03
2022-09-23T21:10:10.965Z,101050.22
2022-09-23T21:12:43.409Z,101045.78
2022-09-23T21:15:11.524Z,101048.22
2022-09-23T21:17:41.765Z,101054.25
2022-09-23T21:20:10.509Z,101055.63
2022-09-23T21:22:38.910Z,101055.66
2022-09-23T21:25:27.920Z,101051.38
2022-09-23T21:28:03.348Z,101052.84
2022-09-23T21:30:32.553Z,101044.22
2022-09-23T21:33:02.045Z,101053.84
2022-09-23T21:35:30.580Z,101048.94
2022-09-23T21:38:01.048Z,101054.19
2022-09-23T21:40:47.447Z,101060.38
2022-09-23T21:43:16.813Z,101050.75
2022-09-23T21:45:44.987Z,101053.66
2022-09-23T21:48:13.032Z,101057.63
2022-09-23T21:50:41.574Z,101063.16
2022-09-23T21:53:10.063Z,101056.44
2022-09-23T21:55:38.069Z,101053.19
2022-09-23T21:58:07.070Z,101058.72
2022-09-23T22:00:35.015Z,101057.09
2022-09-23T22:03:03.067Z,101052.56
2022-09-23T22:05:30.911Z,101057.44
2022-09-23T22:07:58.955Z,101054.19
2022-09-23T22:10:26.754Z,101057.94
2022-09-23T22:12:54.577Z,101060.06
2022-09-23T22:15:22.350Z,101063.47
2022-09-23T22:17:50.194Z,101062.00
2022-09-23T22:20:18.026Z,101063.34
2022-09-23T22:22:45.973Z,101063.66
2022-09-23T22:25:14.053Z,101068.56
2022-09-23T22:28:01.781Z,101060.25
2022-09-23T22:30:48.124Z,101060.56
2022-09-23T22:33:16.761Z,101065.59
2022-09-23T22:35:44.575Z,101068.88
2022-09-23T22:38:12.673Z,101059.06
2022-09-23T22:40:43.696Z,101060.06
2022-09-23T22:43:11.820Z,101060.06
2022-09-23T22:45:39.862Z,101056.16
2022-09-23T22:48:07.695Z,101064.59
2022-09-23T22:50:39.512Z,101062.19
2022-09-23T22:53:09.220Z,101060.25
2022-09-23T22:55:37.099Z,101056.50
2022-09-23T22:58:21.563Z,101054.53
2022-09-23T23:00:55.929Z,101058.91
2022-09-23T23:03:26.812Z,101050.13
2022-09-23T23:05:57.609Z,101055.84
2022-09-23T23:08:27.358Z,101058.44
2022-09-23T23:10:59.106Z,101049.47
2022-09-23T23:13:33.561Z,101046.38
2022-09-23T23:16:06.589Z,101039.72
2022-09-23T23:18:36.557Z,101047.56
2022-09-23T23:21:16.766Z,101045.06
2022-09-23T23:23:50.700Z,101042.00
2022-09-23T23:26:24.132Z,101049.00
2022-09-23T23:28:53.644Z,101041.31
2022-09-23T23:31:23.202Z,101038.88
2022-09-23T23:33:51.411Z,101035.94
2022-09-23T23:36:22.150Z,101047.03
2022-09-23T23:38:54.146Z,101044.41
2022-09-23T23:41:23.030Z,101035.13
2022-09-23T23:43:56.203Z,101035.28
2022-09-23T23:46:26.644Z,101040.81
2022-09-23T23:48:56.194Z,101034.09
2022-09-23T23:51:28.043Z,101029.88
2022-09-23T23:53:56.720Z,101015.03
2022-09-23T23:56:26.161Z,101014.41
2022-09-23T23:59:03.865Z,101024.03
